createdAt,value
2018-06-02T00:01:03.276Z,21.45
2018-06-02T00:03:29.646Z,21.33
2018-06-02T00:05:56.014Z,21.40
2018-06-02T00:08:22.359Z,21.35
2018-06-02T00:10:48.711Z,21.38
2018-06-02T00:13:15.038Z,21.63
2018-06-02T00:15:41.370Z,21.73
2018-06-02T00:18:07.747Z,21.71
2018-06-02T00:20:34.133Z,21.45
2018-06-02T00:23:00.481Z,21.55
2018-06-02T00:25:26.893Z,21.35
2018-06-02T00:27:53.245Z,21.28
2018-06-02T00:30:19.625Z,21.38
2018-06-02T00:32:46.092Z,21.40
2018-06-02T00:35:12.431Z,21.33
2018-06-02T00:37:38.755Z,21.18
2018-06-02T00:40:05.133Z,21.11
2018-06-02T00:42:31.477Z,21.16
2018-06-02T00:44:57.888Z,21.18
2018-06-02T00:47:24.283Z,21.24
2018-06-02T00:49:50.665Z,21.15
2018-06-02T00:52:17.152Z,21.12
2018-06-02T00:54:55.686Z,21.02
2018-06-02T00:57:21.974Z,20.94
2018-06-02T00:59:48.355Z,20.97
2018-06-02T01:02:14.697Z,20.92
2018-06-02T01:04:41.030Z,20.92
2018-06-02T01:07:07.404Z,21.12
2018-06-02T01:09:33.754Z,20.98
2018-06-02T01:12:00.094Z,20.43
2018-06-02T01:14:27.012Z,20.53
2018-06-02T01:16:53.421Z,20.63
2018-06-02T01:19:19.758Z,20.59
2018-06-02T01:21:46.129Z,20.83
2018-06-02T01:24:12.461Z,20.84
2018-06-02T01:26:38.899Z,20.59
2018-06-02T01:29:05.265Z,20.58
2018-06-02T01:31:31.630Z,20.42
2018-06-02T01:33:58.023Z,20.70
2018-06-02T01:36:24.372Z,20.66
2018-06-02T01:38:50.714Z,20.37
2018-06-02T01:41:17.061Z,20.48
2018-06-02T01:43:43.390Z,20.39
2018-06-02T01:46:09.758Z,20.70
2018-06-02T01:48:36.106Z,20.75
2018-06-02T01:51:02.486Z,20.58
2018-06-02T01:53:28.949Z,20.61
2018-06-02T01:55:55.286Z,20.59
2018-06-02T01:58:21.670Z,20.56
2018-06-02T02:00:48.025Z,20.70
2018-06-02T02:03:14.377Z,20.71
2018-06-02T02:05:40.743Z,20.73
2018-06-02T02:08:07.079Z,20.35
2018-06-02T02:10:33.401Z,20.13
2018-06-02T02:12:59.776Z,20.12
2018-06-02T02:15:26.137Z,20.06
2018-06-02T02:17:52.669Z,19.74
2018-06-02T02:20:19.019Z,19.90
2018-06-02T02:22:45.363Z,19.61
2018-06-02T02:25:11.718Z,19.58
2018-06-02T02:27:38.076Z,19.55
2018-06-02T02:30:04.529Z,19.61
2018-06-02T02:32:30.887Z,19.48
2018-06-02T02:34:57.231Z,19.48
2018-06-02T02:37:23.591Z,19.37
2018-06-02T02:39:49.968Z,19.15
2018-06-02T02:42:16.292Z,19.28
2018-06-02T02:44:42.669Z,19.34
2018-06-02T02:47:09.005Z,19.36
2018-06-02T02:49:35.343Z,19.41
2018-06-02T02:52:01.714Z,19.41
2018-06-02T02:54:28.071Z,19.40
2018-06-02T02:56:54.487Z,19.25
2018-06-02T02:59:20.836Z,19.40
2018-06-02T03:01:47.345Z,19.21
2018-06-02T03:04:13.767Z,19.46
2018-06-02T03:06:40.152Z,19.45
2018-06-02T03:09:06.550Z,19.47
2018-06-02T03:11:32.902Z,19.73
2018-06-02T03:13:59.285Z,19.78
2018-06-02T03:16:25.626Z,19.39
2018-06-02T03:18:51.973Z,19.27
2018-06-02T03:21:18.301Z,18.98
2018-06-02T03:23:44.632Z,18.98
2018-06-02T03:26:10.963Z,19.10
2018-06-02T03:28:37.397Z,19.21
2018-06-02T03:31:03.832Z,19.05
2018-06-02T03:33:30.181Z,18.80
2018-06-02T03:35:56.542Z,18.91
2018-06-02T03:38:22.887Z,19.10
2018-06-02T03:40:49.546Z,19.12
2018-06-02T03:43:15.882Z,19.01
2018-06-02T03:45:42.262Z,19.14
2018-06-02T03:48:08.611Z,19.05
2018-06-02T03:50:34.996Z,19.05
2018-06-02T03:53:01.356Z,19.21
2018-06-02T03:55:27.742Z,19.31
2018-06-02T03:57:54.091Z,19.23
2018-06-02T04:00:20.418Z,19.37
2018-06-02T04:02:46.786Z,19.50
2018-06-02T04:05:13.146Z,19.67
2018-06-02T04:07:39.494Z,19.73
2018-06-02T04:10:05.846Z,19.69
2018-06-02T04:12:32.226Z,19.90
2018-06-02T04:14:58.592Z,19.83
2018-06-02T04:17:25.047Z,19.88
2018-06-02T04:19:51.435Z,19.98
2018-06-02T04:22:17.807Z,20.03
2018-06-02T04:24:45.127Z,20.17
2018-06-02T04:27:11.495Z,20.13
2018-06-02T04:29:37.870Z,20.05
2018-06-02T04:32:04.233Z,20.22
2018-06-02T04:34:30.559Z,20.32
2018-06-02T04:36:56.930Z,20.51
2018-06-02T04:39:23.290Z,20.49
2018-06-02T04:41:49.656Z,20.47
2018-06-02T04:44:16.075Z,20.54
2018-06-02T04:46:42.453Z,20.76
2018-06-02T04:49:08.793Z,20.78
2018-06-02T04:51:35.123Z,20.75
2018-06-02T04:54:01.547Z,20.91
2018-06-02T04:56:27.878Z,21.08
2018-06-02T04:58:54.876Z,21.10
2018-06-02T05:01:21.233Z,21.12
2018-06-02T05:03:47.618Z,21.15
2018-06-02T05:06:14.031Z,21.02
2018-06-02T05:08:40.444Z,20.82
2018-06-02T05:11:06.838Z,20.85
2018-06-02T05:13:33.889Z,20.96
2018-06-02T05:16:00.388Z,21.27
2018-06-02T05:18:26.729Z,21.27
2018-06-02T05:20:53.094Z,21.30
2018-06-02T05:23:19.433Z,21.31
2018-06-02T05:25:45.833Z,21.31
2018-06-02T05:28:12.447Z,21.54
2018-06-02T05:30:38.794Z,21.80
2018-06-02T05:33:05.130Z,21.84
2018-06-02T05:35:31.477Z,21.97
2018-06-02T05:37:57.865Z,21.82
2018-06-02T05:40:24.195Z,21.76
2018-06-02T05:42:50.554Z,22.06
2018-06-02T05:45:16.959Z,21.95
2018-06-02T05:47:43.313Z,22.08
2018-06-02T05:50:09.828Z,22.45
2018-06-02T05:52:36.215Z,22.14
2018-06-02T05:55:02.566Z,21.99
2018-06-02T05:57:29.010Z,22.39
2018-06-02T05:59:55.485Z,22.28
2018-06-02T06:02:21.850Z,22.46
2018-06-02T06:04:48.208Z,22.44
2018-06-02T06:07:14.566Z,23.00
2018-06-02T06:09:40.963Z,23.07
2018-06-02T06:12:07.372Z,23.19
2018-06-02T06:14:33.746Z,23.56
2018-06-02T06:17:00.093Z,23.93
2018-06-02T06:19:26.573Z,23.94
2018-06-02T06:21:52.926Z,23.42
2018-06-02T06:24:19.292Z,23.46
2018-06-02T06:26:45.637Z,23.44
2018-06-02T06:29:12.014Z,23.65
2018-06-02T06:31:38.362Z,23.49
2018-06-02T06:34:04.930Z,23.52
2018-06-02T06:36:31.276Z,23.84
2018-06-02T06:38:57.649Z,23.45
2018-06-02T06:41:24.112Z,23.80
2018-06-02T06:43:50.546Z,24.20
2018-06-02T06:46:16.906Z,24.03
2018-06-02T06:48:43.237Z,23.88
2018-06-02T06:51:09.577Z,24.14
2018-06-02T06:53:35.938Z,24.03
2018-06-02T06:56:02.309Z,24.25
2018-06-02T06:58:28.658Z,24.38
2018-06-02T07:00:55.008Z,24.64
2018-06-02T07:03:21.343Z,24.73
2018-06-02T07:05:47.710Z,24.54
2018-06-02T07:08:14.060Z,24.40
2018-06-02T07:10:40.418Z,24.49
2018-06-02T07:13:06.778Z,24.27
2018-06-02T07:15:33.119Z,24.48
2018-06-02T07:17:59.457Z,24.93
2018-06-02T07:20:25.786Z,24.89
2018-06-02T07:22:52.166Z,25.00
2018-06-02T07:25:18.551Z,25.28
2018-06-02T07:27:44.918Z,25.07
2018-06-02T07:30:11.262Z,25.13
2018-06-02T07:32:37.609Z,25.21
2018-06-02T07:35:03.966Z,25.06
2018-06-02T07:37:30.313Z,24.98
2018-06-02T07:39:56.653Z,24.95
2018-06-02T07:42:23.030Z,25.07
2018-06-02T07:44:49.374Z,25.36
2018-06-02T07:47:15.719Z,25.23
2018-06-02T07:49:42.109Z,25.50
2018-06-02T07:52:08.463Z,25.80
2018-06-02T07:54:34.797Z,25.67
2018-06-02T07:57:02.274Z,25.64
2018-06-02T07:59:28.619Z,25.67
2018-06-02T08:01:54.958Z,25.63
2018-06-02T08:04:21.418Z,25.44
2018-06-02T08:06:47.750Z,25.35
2018-06-02T08:09:14.134Z,25.62
2018-06-02T08:11:40.541Z,25.61
2018-06-02T08:14:07.051Z,25.74
2018-06-02T08:16:33.400Z,25.97
2018-06-02T08:18:59.748Z,25.74
2018-06-02T08:21:26.086Z,25.73
2018-06-02T08:23:52.427Z,25.98
2018-06-02T08:26:19.368Z,26.00
2018-06-02T08:28:45.767Z,26.18
2018-06-02T08:31:12.113Z,26.23
2018-06-02T08:33:38.544Z,26.13
2018-06-02T08:36:04.850Z,26.07
2018-06-02T08:38:31.158Z,25.97
2018-06-02T08:40:57.485Z,26.07
2018-06-02T08:43:23.818Z,26.47
2018-06-02T08:45:50.146Z,26.53
2018-06-02T08:48:16.607Z,26.44
2018-06-02T08:50:42.940Z,26.51
2018-06-02T08:53:09.286Z,26.52
2018-06-02T08:55:35.613Z,26.42
2018-06-02T08:58:01.934Z,26.74
2018-06-02T09:00:28.323Z,26.38
2018-06-02T09:02:54.619Z,26.53
2018-06-02T09:05:21.851Z,26.75
2018-06-02T09:07:48.154Z,26.59
2018-06-02T09:10:14.478Z,26.59
2018-06-02T09:12:40.815Z,26.62
2018-06-02T09:15:07.138Z,26.44
2018-06-02T09:17:33.471Z,26.68
2018-06-02T09:20:00.040Z,26.84
2018-06-02T09:22:26.389Z,26.93
2018-06-02T09:24:52.725Z,26.76
2018-06-02T09:27:19.050Z,26.71
2018-06-02T09:29:45.386Z,26.80
2018-06-02T09:32:11.709Z,26.74
2018-06-02T09:34:38.055Z,26.65
2018-06-02T09:37:04.394Z,26.85
2018-06-02T09:39:30.718Z,27.03
2018-06-02T09:41:57.131Z,27.04
2018-06-02T09:44:23.587Z,27.37
2018-06-02T09:46:50.112Z,27.46
2018-06-02T09:49:16.526Z,27.61
2018-06-02T09:51:42.887Z,27.59
2018-06-02T09:54:09.223Z,27.36
2018-06-02T09:56:35.670Z,27.35
2018-06-02T09:59:01.951Z,27.31
2018-06-02T10:01:28.335Z,27.52
2018-06-02T10:03:54.693Z,27.45
2018-06-02T10:06:21.048Z,27.64
2018-06-02T10:08:47.367Z,27.61
2018-06-02T10:11:13.687Z,27.55
2018-06-02T10:13:40.059Z,27.22
2018-06-02T10:16:06.373Z,27.40
2018-06-02T10:18:32.728Z,27.68
2018-06-02T10:20:59.119Z,27.44
2018-06-02T10:23:25.481Z,27.76
2018-06-02T10:25:51.790Z,27.93
2018-06-02T10:28:18.132Z,27.88
2018-06-02T10:30:44.455Z,28.13
2018-06-02T10:33:10.774Z,28.00
2018-06-02T10:35:37.161Z,28.30
2018-06-02T10:38:03.493Z,28.12
2018-06-02T10:40:29.856Z,28.03
2018-06-02T10:42:56.178Z,28.28
2018-06-02T10:45:22.525Z,28.31
2018-06-02T10:47:48.861Z,28.04
2018-06-02T10:50:15.239Z,28.06
2018-06-02T10:52:41.574Z,28.05
2018-06-02T10:55:07.906Z,28.19
2018-06-02T10:57:35.087Z,28.32
2018-06-02T11:00:01.435Z,28.45
2018-06-02T11:02:27.777Z,28.34
2018-06-02T11:04:54.180Z,28.31
2018-06-02T11:07:20.615Z,27.91
2018-06-02T11:09:48.590Z,28.13
2018-06-02T11:12:16.171Z,27.94
2018-06-02T11:14:42.521Z,28.27
2018-06-02T11:17:08.855Z,28.18
2018-06-02T11:19:35.217Z,28.17
2018-06-02T11:22:01.543Z,28.23
2018-06-02T11:24:27.872Z,28.23
2018-06-02T11:26:54.201Z,28.50
2018-06-02T11:29:28.013Z,28.45
2018-06-02T11:32:23.558Z,28.71
2018-06-02T11:34:55.716Z,28.46
2018-06-02T11:37:23.220Z,28.50
2018-06-02T11:40:08.291Z,28.44
2018-06-02T11:42:35.851Z,28.48
2018-06-02T11:45:06.194Z,28.57
2018-06-02T11:47:32.526Z,28.82
2018-06-02T11:49:59.001Z,28.36
2018-06-02T11:52:25.434Z,28.41
2018-06-02T11:54:51.775Z,28.65
2018-06-02T11:57:18.097Z,28.72
2018-06-02T11:59:44.483Z,28.83
2018-06-02T12:02:10.786Z,28.85
2018-06-02T12:04:37.193Z,28.90
2018-06-02T12:07:03.572Z,28.92
2018-06-02T12:09:30.060Z,28.72
2018-06-02T12:11:56.429Z,28.59
2018-06-02T12:14:22.805Z,28.69
2018-06-02T12:16:49.134Z,28.82
2018-06-02T12:19:15.465Z,28.87
2018-06-02T12:21:41.787Z,28.72
2018-06-02T12:24:08.105Z,28.86
2018-06-02T12:26:34.418Z,28.64
2018-06-02T12:29:00.813Z,28.89
2018-06-02T12:31:27.245Z,28.82
2018-06-02T12:33:53.571Z,28.67
2018-06-02T12:36:20.042Z,28.87
2018-06-02T12:38:46.409Z,28.85
2018-06-02T12:41:12.744Z,28.85
2018-06-02T12:43:39.091Z,29.00
2018-06-02T12:46:08.612Z,28.81
2018-06-02T12:48:35.691Z,28.82
2018-06-02T12:51:05.653Z,28.88
2018-06-02T12:53:44.562Z,28.83
2018-06-02T12:56:17.155Z,28.87
2018-06-02T12:58:45.899Z,29.11
2018-06-02T13:01:12.240Z,28.87
2018-06-02T13:03:38.710Z,28.88
2018-06-02T13:06:05.048Z,29.03
2018-06-02T13:08:31.397Z,29.33
2018-06-02T13:10:57.726Z,28.94
2018-06-02T13:13:24.045Z,29.15
2018-06-02T13:15:50.361Z,29.13
2018-06-02T13:18:16.938Z,29.40
2018-06-02T13:20:43.325Z,29.20
2018-06-02T13:23:09.649Z,29.36
2018-06-02T13:25:36.021Z,29.56
2018-06-02T13:28:02.455Z,29.57
2018-06-02T13:30:28.809Z,29.36
2018-06-02T13:32:55.141Z,29.32
2018-06-02T13:35:22.096Z,29.21
2018-06-02T13:37:48.511Z,29.29
2018-06-02T13:40:15.014Z,29.59
2018-06-02T13:42:41.808Z,29.61
2018-06-02T13:45:08.277Z,29.46
2018-06-02T13:47:34.613Z,29.44
2018-06-02T13:50:01.893Z,29.64
2018-06-02T13:52:28.273Z,29.61
2018-06-02T13:54:56.708Z,29.53
2018-06-02T13:57:23.045Z,29.60
2018-06-02T13:59:49.379Z,29.64
2018-06-02T14:02:16.703Z,29.63
2018-06-02T14:04:43.060Z,29.45
2018-06-02T14:07:09.409Z,29.53
2018-06-02T14:09:35.821Z,29.65
2018-06-02T14:12:02.140Z,29.58
2018-06-02T14:14:28.510Z,29.65
2018-06-02T14:16:54.836Z,29.60
2018-06-02T14:19:21.175Z,29.70
2018-06-02T14:21:47.578Z,29.60
2018-06-02T14:24:14.014Z,29.86
2018-06-02T14:26:40.956Z,29.54
2018-06-02T14:29:07.315Z,29.58
2018-06-02T14:31:33.701Z,29.46
2018-06-02T14:34:00.052Z,29.51
2018-06-02T14:36:26.488Z,29.42
2018-06-02T14:38:52.822Z,29.52
2018-06-02T14:41:19.252Z,29.51
2018-06-02T14:43:45.745Z,29.47
2018-06-02T14:46:12.270Z,29.30
2018-06-02T14:48:38.613Z,29.22
2018-06-02T14:51:05.089Z,29.35
2018-06-02T14:53:31.436Z,29.35
2018-06-02T14:55:57.779Z,29.41
2018-06-02T14:58:25.129Z,29.34
2018-06-02T15:00:51.493Z,29.46
2018-06-02T15:03:17.846Z,29.26
2018-06-02T15:05:44.211Z,29.25
2018-06-02T15:08:10.745Z,29.41
2018-06-02T15:10:37.093Z,29.51
2018-06-02T15:13:03.526Z,29.74
2018-06-02T15:15:29.934Z,29.89
2018-06-02T15:17:56.286Z,29.61
2018-06-02T15:20:22.627Z,29.55
2018-06-02T15:22:48.979Z,29.71
2018-06-02T15:25:15.337Z,29.69
2018-06-02T15:27:41.683Z,29.68
2018-06-02T15:30:08.038Z,29.68
2018-06-02T15:32:34.457Z,29.33
2018-06-02T15:35:02.563Z,29.48
2018-06-02T15:37:28.897Z,29.29
2018-06-02T15:39:55.234Z,29.45
2018-06-02T15:42:21.594Z,29.48
2018-06-02T15:44:48.060Z,29.40
2018-06-02T15:47:14.389Z,29.52
2018-06-02T15:49:40.726Z,29.23
2018-06-02T15:52:07.083Z,29.24
2018-06-02T15:54:33.413Z,29.32
2018-06-02T15:56:59.773Z,29.29
2018-06-02T15:59:43.065Z,29.49
2018-06-02T16:02:12.309Z,29.35
2018-06-02T16:05:13.799Z,29.45
2018-06-02T16:07:40.154Z,29.37
2018-06-02T16:10:06.495Z,29.34
2018-06-02T16:12:33.046Z,29.17
2018-06-02T16:14:59.376Z,29.30
2018-06-02T16:17:25.647Z,29.02
2018-06-02T16:19:52.158Z,29.09
2018-06-02T16:22:18.432Z,29.24
2018-06-02T16:24:44.784Z,29.22
2018-06-02T16:27:11.099Z,29.22
2018-06-02T16:29:37.474Z,29.36
2018-06-02T16:32:03.846Z,29.23
2018-06-02T16:34:30.203Z,28.79
2018-06-02T16:36:57.086Z,28.91
2018-06-02T16:39:23.406Z,29.07
2018-06-02T16:41:49.737Z,29.00
2018-06-02T16:44:16.130Z,28.81
2018-06-02T16:46:42.469Z,28.66
2018-06-02T16:49:08.815Z,28.63
2018-06-02T16:51:35.146Z,28.58
2018-06-02T16:54:01.473Z,28.72
2018-06-02T16:56:27.825Z,28.48
2018-06-02T16:58:54.162Z,28.39
2018-06-02T17:01:20.445Z,28.12
2018-06-02T17:03:46.787Z,28.30
2018-06-02T17:06:13.159Z,28.15
2018-06-02T17:08:39.530Z,28.15
2018-06-02T17:11:05.837Z,28.03
2018-06-02T17:13:32.257Z,28.17
2018-06-02T17:15:58.681Z,28.36
2018-06-02T17:18:25.242Z,28.11
2018-06-02T17:20:51.648Z,28.15
2018-06-02T17:23:18.014Z,28.18
2018-06-02T17:25:44.366Z,28.33
2018-06-02T17:28:10.638Z,28.10
2018-06-02T17:30:36.977Z,27.92
2018-06-02T17:33:03.305Z,27.96
2018-06-02T17:35:29.856Z,27.62
2018-06-02T17:37:56.150Z,27.80
2018-06-02T17:40:22.518Z,27.93
2018-06-02T17:42:48.812Z,27.70
2018-06-02T17:45:15.165Z,27.87
2018-06-02T17:47:41.435Z,27.88
2018-06-02T17:50:07.715Z,27.71
2018-06-02T17:52:33.994Z,27.70
2018-06-02T17:55:00.286Z,27.84
2018-06-02T17:57:26.573Z,27.88
2018-06-02T17:59:52.876Z,27.77
2018-06-02T18:02:19.222Z,27.57
2018-06-02T18:04:45.513Z,27.43
2018-06-02T18:07:11.805Z,27.24
2018-06-02T18:09:38.625Z,27.00
2018-06-02T18:12:08.359Z,27.14
2018-06-02T18:14:34.634Z,27.35
2018-06-02T18:17:00.994Z,27.37
2018-06-02T18:19:27.282Z,27.20
2018-06-02T18:21:53.952Z,26.99
2018-06-02T18:24:21.264Z,26.90
2018-06-02T18:26:47.529Z,26.79
2018-06-02T18:29:13.837Z,26.45
2018-06-02T18:31:40.112Z,26.11
2018-06-02T18:34:06.380Z,25.99
2018-06-02T18:36:32.657Z,25.98
2018-06-02T18:38:58.926Z,26.31
2018-06-02T18:41:25.200Z,25.87
2018-06-02T18:43:51.759Z,26.07
2018-06-02T18:46:18.130Z,25.96
2018-06-02T18:48:47.293Z,26.48
2018-06-02T18:51:13.894Z,26.41
2018-06-02T18:53:40.216Z,26.43
2018-06-02T18:56:06.578Z,26.44
2018-06-02T18:58:32.850Z,25.79
2018-06-02T19:00:59.179Z,26.00
2018-06-02T19:03:25.477Z,25.86
2018-06-02T19:05:52.239Z,26.04
2018-06-02T19:08:18.505Z,26.10
2018-06-02T19:10:44.819Z,25.69
2018-06-02T19:13:11.096Z,25.51
2018-06-02T19:15:37.404Z,25.73
2018-06-02T19:18:03.709Z,25.54
2018-06-02T19:20:30.014Z,25.49
2018-06-02T19:22:56.297Z,25.86
2018-06-02T19:25:22.592Z,25.11
2018-06-02T19:27:48.856Z,24.93
2018-06-02T19:30:15.142Z,25.34
2018-06-02T19:32:41.420Z,25.68
2018-06-02T19:35:07.754Z,25.35
2018-06-02T19:37:34.038Z,24.78
2018-06-02T19:40:00.306Z,24.64
2018-06-02T19:42:26.598Z,24.53
2018-06-02T19:44:52.867Z,24.60
2018-06-02T19:47:19.197Z,24.50
2018-06-02T19:49:45.484Z,24.42
2018-06-02T19:52:12.637Z,24.28
2018-06-02T19:54:38.908Z,24.23
2018-06-02T19:57:05.202Z,24.20
2018-06-02T19:59:31.484Z,24.16
2018-06-02T20:01:57.921Z,24.07
2018-06-02T20:04:24.207Z,24.05
2018-06-02T20:06:50.477Z,24.04
2018-06-02T20:09:16.774Z,23.97
2018-06-02T20:11:43.125Z,23.83
2018-06-02T20:14:09.404Z,23.79
2018-06-02T20:16:35.896Z,23.82
2018-06-02T20:19:02.178Z,23.96
2018-06-02T20:21:28.471Z,24.26
2018-06-02T20:23:54.779Z,24.18
2018-06-02T20:26:21.078Z,24.05
2018-06-02T20:28:47.362Z,24.02
2018-06-02T20:31:13.637Z,24.00
2018-06-02T20:33:39.923Z,24.50
2018-06-02T20:36:06.222Z,24.69
2018-06-02T20:38:32.498Z,24.72
2018-06-02T20:40:58.757Z,24.37
2018-06-02T20:43:25.041Z,23.93
2018-06-02T20:45:51.314Z,23.99
2018-06-02T20:48:17.585Z,24.39
2018-06-02T20:50:43.921Z,24.56
2018-06-02T20:53:10.232Z,24.40
2018-06-02T20:55:36.564Z,24.46
2018-06-02T20:58:02.890Z,24.48
2018-06-02T21:00:29.161Z,24.03
2018-06-02T21:02:55.443Z,23.85
2018-06-02T21:05:21.734Z,23.67
2018-06-02T21:07:48.098Z,23.60
2018-06-02T21:10:14.358Z,24.08
2018-06-02T21:12:40.635Z,24.02
2018-06-02T21:15:06.917Z,24.26
2018-06-02T21:17:33.184Z,24.61
2018-06-02T21:19:59.506Z,23.88
2018-06-02T21:22:25.823Z,23.44
2018-06-02T21:24:52.096Z,23.71
2018-06-02T21:27:18.469Z,23.97
2018-06-02T21:29:44.734Z,23.87
2018-06-02T21:32:11.014Z,24.26
2018-06-02T21:34:37.302Z,24.50
2018-06-02T21:37:03.711Z,24.53
2018-06-02T21:39:30.011Z,24.38
2018-06-02T21:41:56.353Z,23.80
2018-06-02T21:44:22.789Z,23.51
2018-06-02T21:46:49.095Z,23.04
2018-06-02T21:49:15.526Z,22.80
2018-06-02T21:51:41.807Z,22.74
2018-06-02T21:54:08.103Z,22.91
2018-06-02T21:56:34.374Z,23.39
2018-06-02T21:59:00.722Z,23.25
2018-06-02T22:01:27.031Z,23.58
2018-06-02T22:03:53.365Z,23.25
2018-06-02T22:06:19.714Z,22.86
2018-06-02T22:08:46.099Z,22.93
2018-06-02T22:11:12.357Z,22.38
2018-06-02T22:13:38.733Z,22.51
2018-06-02T22:16:05.419Z,22.44
2018-06-02T22:18:31.725Z,22.27
2018-06-02T22:20:57.993Z,22.51
2018-06-02T22:23:24.391Z,22.15
2018-06-02T22:25:50.731Z,22.40
2018-06-02T22:28:17.260Z,22.25
2018-06-02T22:30:43.562Z,21.82
2018-06-02T22:33:09.845Z,22.22
2018-06-02T22:35:36.190Z,21.98
2018-06-02T22:38:02.510Z,22.18
2018-06-02T22:40:28.787Z,22.05
2018-06-02T22:42:55.073Z,21.92
2018-06-02T22:45:22.057Z,22.14
2018-06-02T22:47:48.346Z,21.62
2018-06-02T22:50:14.753Z,21.84
2018-06-02T22:52:41.256Z,21.75
2018-06-02T22:55:07.536Z,21.78
2018-06-02T22:57:33.874Z,21.69
2018-06-02T23:00:00.221Z,21.69
2018-06-02T23:02:26.488Z,21.49
2018-06-02T23:04:52.761Z,21.47
2018-06-02T23:07:19.042Z,21.44
2018-06-02T23:09:45.296Z,21.56
2018-06-02T23:12:11.531Z,21.56
2018-06-02T23:14:37.759Z,21.16
2018-06-02T23:17:03.981Z,20.91
2018-06-02T23:19:30.186Z,21.31
2018-06-02T23:21:56.405Z,21.20
2018-06-02T23:24:22.605Z,21.27
2018-06-02T23:26:48.811Z,21.17
2018-06-02T23:29:15.025Z,20.92
2018-06-02T23:31:41.277Z,20.84
2018-06-02T23:34:07.477Z,20.94
2018-06-02T23:36:33.690Z,20.79
2018-06-02T23:38:59.917Z,20.86
2018-06-02T23:41:26.126Z,20.95
2018-06-02T23:43:52.513Z,20.98
2018-06-02T23:46:18.728Z,21.34
2018-06-02T23:48:44.925Z,21.54
2018-06-02T23:51:11.186Z,21.57
2018-06-02T23:53:37.401Z,21.96
2018-06-02T23:56:03.647Z,21.61
2018-06-02T23:58:29.871Z,21.08
